Nearby METAR Reports
METARS update every hour


KCEY - Murray Kyle-Oak, Kentucky, USA
Distance from station: N 44mi, 71km
Updated: Thu, 27 Apr 2017 14:55 CDT
Mostly cloudy
Mostly cloudy
 Wind from W
Wind: W 12 mph , 19 km/h
Temperature: 59°F , 15°C
Dew Point: 48°F , 9°C
Humidity: 68%
Barometer: 29.84 inHg , 1010.5 hPa
Clouds: Mostly cloudy
Visibility: 10 miles , 16 km
Cloud Details: Mostly cloudy 2400 ft
2017/04/27 19:55 KCEY 271955Z AUTO 26010KT 10SM BKN024 15/09 A2984 RMK AO1
KUCY - Union City, Tennessee, USA
Distance from station: WNW 48mi, 77km
Updated: Thu, 27 Apr 2017 15:15 CDT
Few Clouds
Few Clouds
 Wind from WSW
Wind: WSW 8 mph , 13 km/h, Gust: 14 mph , 22 km/h
Temperature: 61°F , 16°C
Dew Point: 50°F , 10°C
Humidity: 68%
Barometer: 29.84 inHg , 1010.5 hPa
Clouds: Few Clouds
Visibility: 10 miles , 16 km
Cloud Details: Few Clouds 3000 ft
2017/04/27 20:15 KUCY 272015Z AUTO 25007G12KT 10SM FEW030 16/10 A2984 RMK A01
 
KMKL - Jackson, Tennessee, USA
Distance from station: SW 48mi, 78km
Updated: Thu, 27 Apr 2017 14:53 CDT
Partly cloudy
Partly cloudy
 
Temperature: 64°F , 18°C
Dew Point: 52°F , 11°C
Humidity: 64%
Barometer: 29.85 inHg , 1010.8 hPa
Clouds: Partly cloudy
Visibility: 10 miles , 16 km
Cloud Details: Partly cloudy 2200 ft
2017/04/27 19:53 KMKL 271953Z 10SM SCT022 18/11 A2985 RMK AO2 SLP105 T01780106
KHOP - Hopkinsville, Kentucky, USA
Distance from station: NE 60mi, 97km
Updated: Thu, 27 Apr 2017 14:58 CDT
Few Clouds
Few Clouds
 Wind from WSW
Wind: WSW 14 mph , 22 km/h, Gust: 17 mph , 28 km/h
Temperature: 63°F , 17°C
Dew Point: 50°F , 10°C
Humidity: 64%
Barometer: 29.82 inHg , 1009.8 hPa
Clouds: Few Clouds
Visibility: 10 miles , 16 km
Cloud Details: Few Clouds 2700 ft
2017/04/27 19:58 KHOP 271958Z AUTO 24012G15KT 10SM FEW027 17/10 A2982 RMK AO2 SLP097 T01660099
 
KCKV - Clarksville, Tennessee, USA
Distance from station: NE 61mi, 98km
Updated: Thu, 27 Apr 2017 15:07 CDT
Partly cloudy
Partly cloudy
 Wind from SW
Wind: SW 10 mph , 17 km/h
Temperature: 63°F , 17°C
Dew Point: 48°F , 9°C
Humidity: 59%
Barometer: 29.84 inHg , 1010.5 hPa
Clouds: Partly cloudy
Visibility: 10 miles , 16 km
Cloud Details: Partly cloudy 2800 ft
2017/04/27 20:07 KCKV 272007Z AUTO 23009KT 10SM SCT028 17/09 A2984 RMK AO2 T01670089
KDYR - Dyersburg, Tennessee, USA
Distance from station: W 65mi, 104km
Updated: Thu, 27 Apr 2017 14:56 CDT
Clear
Clear
 Wind from WSW
Wind: WSW 8 mph , 13 km/h
Temperature: 63°F , 17°C
Dew Point: 48°F , 9°C
Humidity: 59%
Barometer: 29.85 inHg , 1010.8 hPa
Clouds: Clear
Visibility: 10 miles , 16 km
2017/04/27 19:56 KDYR 271956Z AUTO 24007KT 10SM CLR 17/09 A2985 RMK AO2 SLP124 T01670089
 
KMRC - Columbia, Tennessee, USA
Distance from station: ESE 68mi, 110km
Updated: Thu, 27 Apr 2017 15:15 CDT

 Wind from WSW
Wind: WSW 8 mph , 13 km/h
Temperature: 68°F , 20°C
Dew Point: 57°F , 14°C
Humidity: 69%
Barometer: 29.82 inHg , 1009.8 hPa
Visibility: 10 miles , 16 km
2017/04/27 20:15 KMRC 272015Z AUTO 25007KT 10SM 20/14 A2982 RMK
KPAH - Paducah, Kentucky, USA
Distance from station: NNW 77mi, 124km
Updated: Thu, 27 Apr 2017 15:00 CDT
Overcast
Overcast
 Wind from SW
Wind: SW 9 mph , 15 km/h
Temperature: 59°F , 15°C
Dew Point: 46°F , 8°C
Humidity: 63%
Barometer: 29.82 inHg , 1009.8 hPa
Clouds: Overcast
Visibility: 10 miles , 16 km
Cloud Details: Overcast 3000 ft
2017/04/27 20:00 KPAH 272000Z 22008KT 10SM OVC030 15/08 A2982 RMK AO2 T01500083
 
KCRX - Corinth/R Turner, Mississippi, USA
Distance from station: SSW 80mi, 128km
Updated: Thu, 27 Apr 2017 15:15 CDT
Partly cloudy
Partly cloudy
 Wind from E
Wind: E 5 mph , 7 km/h
Temperature: 66°F , 19°C
Dew Point: 50°F , 10°C
Humidity: 56%
Barometer: 29.84 inHg , 1010.5 hPa
Clouds: Partly cloudy
Visibility: 10 miles , 16 km
Cloud Details: Partly cloudy 3200 ft
2017/04/27 20:15 KCRX 272015Z AUTO 10004KT 10SM SCT032 19/10 A2984 RMK AO2
KM30 - Metropolis, Illinois, USA
Distance from station: NNW 84mi, 135km
Updated: Thu, 27 Apr 2017 15:15 CDT
Mostly cloudy
Mostly cloudy
 Wind from WSW
Wind: WSW 6 mph , 9 km/h
Temperature: 59°F , 15°C
Dew Point: 48°F , 9°C
Humidity: 68%
Barometer: 29.83 inHg , 1010.2 hPa
Clouds: Mostly cloudy
Visibility: 10 miles , 16 km
Cloud Details: Mostly cloudy 2700 ft
2017/04/27 20:15 KM30 272015Z AUTO 25005KT 10SM BKN027 15/09 A2983 RMK AO2 T01470092
 
KBNA - Nashville, Tennessee, USA
Distance from station: E 87mi, 141km
Updated: Thu, 27 Apr 2017 14:53 CDT
Partly cloudy
Partly cloudy
 Wind from WNW
Wind: WNW 8 mph , 13 km/h
Temperature: 70°F , 21°C
Dew Point: 54°F , 12°C
Humidity: 57%
Barometer: 29.82 inHg , 1009.8 hPa
Clouds: Partly cloudy
Visibility: 10 miles , 16 km
Cloud Details: Partly cloudy 3500 ft
2017/04/27 19:53 KBNA 271953Z 29007KT 10SM SCT035 21/12 A2982 RMK AO2 SLP091 T02110117
KHKA - Blytheville, Arkansas, USA
Distance from station: W 89mi, 143km
Updated: Thu, 27 Apr 2017 14:53 CDT
Few Clouds
Few Clouds
 Wind from varies
Wind: varies 7 mph , 11 km/h
Temperature: 63°F , 17°C
Dew Point: 52°F , 11°C
Humidity: 68%
Barometer: 29.84 inHg , 1010.5 hPa
Clouds: Few Clouds
Visibility: 10 miles , 16 km
Cloud Details: Few Clouds 2900 ft
2017/04/27 19:53 KHKA 271953Z AUTO VRB06KT 10SM FEW029 17/11 A2984 RMK AO2 SLP102 T01670106
 
KCIR - Cairo, Illinois, USA
Distance from station: NW 89mi, 144km
Updated: Thu, 27 Apr 2017 15:15 CDT
Mostly cloudy
Mostly cloudy
 Wind from SW
Wind: SW 10 mph , 17 km/h, Gust: 18 mph , 30 km/h
Temperature: 57°F , 14°C
Dew Point: 48°F , 9°C
Humidity: 72%
Barometer: 29.84 inHg , 1010.5 hPa
Clouds: Mostly cloudy
Visibility: 10 miles , 16 km
Cloud Details: Mostly cloudy 2900 ft
2017/04/27 20:15 KCIR 272015Z AUTO 22009G16KT 10SM BKN029 14/09 A2984 RMK AO2 T01400088
KBYH - Blytheville, Arkansas, USA
Distance from station: W 95mi, 154km
Updated: Thu, 27 Apr 2017 14:50 CDT
Partly cloudy
Partly cloudy
 Wind from SW
Wind: SW 9 mph , 15 km/h
Temperature: 64°F , 18°C
Dew Point: 50°F , 10°C
Humidity: 60%
Barometer: 29.83 inHg , 1010.2 hPa
Clouds: Partly cloudy
Visibility: 10 miles , 16 km
Cloud Details: Partly cloudy 2900 ft
2017/04/27 19:50 KBYH 271950Z 23008KT 10SM SCT029 18/10 A2983
 
KMSL - Muscle Shoal, Alabama, USA
Distance from station: SSE 96mi, 154km
Updated: Thu, 27 Apr 2017 14:53 CDT
Partly cloudy
Partly cloudy
 
Temperature: 70°F , 21°C
Dew Point: 55°F , 13°C
Humidity: 60%
Barometer: 29.84 inHg , 1010.5 hPa
Clouds: Partly cloudy
Visibility: 10 miles , 16 km
Cloud Details: Partly cloudy 3100 ft
2017/04/27 19:53 KMSL 271953Z AUTO 10SM SCT031 21/13 A2984 RMK AO2 SLP099 T02110133
KMQY - Smyrna, Tennessee, USA
Distance from station: E 97mi, 155km
Updated: Thu, 27 Apr 2017 14:56 CDT
Partly cloudy
Partly cloudy
 Wind from W
Wind: W 13 mph , 20 km/h
Temperature: 72°F , 22°C
Dew Point: 54°F , 12°C
Humidity: 53%
Barometer: 29.81 inHg , 1009.5 hPa
Clouds: Partly cloudy
Visibility: 10 miles , 16 km
Cloud Details: Partly cloudy 3900 ft
2017/04/27 19:56 KMQY 271956Z 28011KT 10SM SCT039 22/12 A2981 RMK AO2 SLP988 T02170122
 
K2I0 - Madisonville, Kentucky, USA
Distance from station: NNE 102mi, 164km
Updated: Thu, 27 Apr 2017 14:35 CDT
Overcast
Overcast
 Wind from W
Wind: W 8 mph , 13 km/h
Temperature: 63°F , 17°C
Dew Point: 52°F , 11°C
Humidity: 68%
Barometer: 29.83 inHg , 1010.2 hPa
Clouds: Overcast
Visibility: 10 miles , 16 km
Cloud Details: Mostly cloudy 2600 ft
Overcast 3300 ft
2017/04/27 19:35 K2I0 271935Z AUTO 26007KT 10SM BKN026 OVC033 17/11 A2983 RMK AO2 T01650110
KNQA - Millington/88d, Tennessee, USA
Distance from station: WSW 103mi, 165km
Updated: Thu, 27 Apr 2017 14:50 CDT
Partly cloudy
Partly cloudy
 Wind from WSW
Wind: WSW 7 mph , 11 km/h
Temperature: 64°F , 18°C
Dew Point: 50°F , 10°C
Humidity: 60%
Barometer: 29.84 inHg , 1010.5 hPa
Clouds: Partly cloudy
Visibility: 10 miles , 16 km
Cloud Details: Few Clouds 3300 ft
Partly cloudy 25000 ft
2017/04/27 19:50 KNQA 271950Z 24006KT 10SM FEW033 SCT250 18/10 A2984
 
K9A4 - Courtland, Alabama, USA
Distance from station: SSE 107mi, 172km
Updated: Thu, 22 Aug 2013 14:15 CDT
NOT Current
Clear
Clear
 Wind from NNE
Wind: NNE 6 mph , 9 km/h
Temperature: 84°F , 29°C
Heat Index: 89°F , 32°C
Dew Point: 72°F , 22°C
Humidity: 66%
Barometer: 30.10 inHg , 1019.3 hPa
Clouds: Clear
Visibility: 10 miles , 16 km
2013/08/22 19:15 K9A4 221915Z AUTO 03005KT 10SM CLR 29/22 A3010 RMK AO2
KCGI - Cape Girardeau, Missouri, USA
Distance from station: NW 111mi, 179km
Updated: Thu, 27 Apr 2017 15:23 CDT
Mostly cloudy
Mostly cloudy
 Wind from SW
Wind: SW 8 mph , 13 km/h
Temperature: 61°F , 16°C
Dew Point: 46°F , 8°C
Humidity: 59%
Barometer: 29.82 inHg , 1009.8 hPa
Clouds: Mostly cloudy
Visibility: 10 miles , 16 km
Cloud Details: Mostly cloudy 3000 ft
2017/04/27 20:23 KCGI 272023Z 22007KT 10SM BKN030 16/08 A2982 RMK AO2 T01560083